createdAt,value
2022-11-15T00:01:19.761Z,6.27
2022-11-15T00:03:48.140Z,6.26
2022-11-15T00:06:17.837Z,6.28
2022-11-15T00:08:45.947Z,6.30
2022-11-15T00:11:14.952Z,6.28
2022-11-15T00:13:43.314Z,6.25
2022-11-15T00:16:12.219Z,6.26
2022-11-15T00:18:40.475Z,6.23
2022-11-15T00:21:11.511Z,6.24
2022-11-15T00:23:41.616Z,6.27
2022-11-15T00:26:13.583Z,6.25
2022-11-15T00:28:42.022Z,6.23
2022-11-15T00:31:15.795Z,6.20
2022-11-15T00:33:46.286Z,6.17
2022-11-15T00:36:15.429Z,6.16
2022-11-15T00:38:44.842Z,6.14
2022-11-15T00:41:13.223Z,6.11
2022-11-15T00:43:44.490Z,6.08
2022-11-15T00:46:13.058Z,6.05
2022-11-15T00:48:41.099Z,6.08
2022-11-15T00:51:09.482Z,6.08
2022-11-15T00:53:37.616Z,6.08
2022-11-15T00:56:07.909Z,6.07
2022-11-15T00:58:36.099Z,6.08
2022-11-15T01:01:09.275Z,6.10
2022-11-15T01:03:38.094Z,6.13
2022-11-15T01:06:07.071Z,6.18
2022-11-15T01:08:35.340Z,6.19
2022-11-15T01:11:05.080Z,6.21
2022-11-15T01:13:36.232Z,6.18
2022-11-15T01:16:10.638Z,6.16
2022-11-15T01:18:38.835Z,6.16
2022-11-15T01:21:08.874Z,6.16
2022-11-15T01:23:36.928Z,6.14
2022-11-15T01:26:06.923Z,6.13
2022-11-15T01:28:38.089Z,6.15
2022-11-15T01:31:09.511Z,6.11
2022-11-15T01:33:37.995Z,6.12
2022-11-15T01:36:07.177Z,6.14
2022-11-15T01:38:35.567Z,6.13
2022-11-15T01:41:03.912Z,6.08
2022-11-15T01:43:34.565Z,6.05
2022-11-15T01:46:08.981Z,6.00
2022-11-15T01:48:37.623Z,5.99
2022-11-15T01:51:12.766Z,5.97
2022-11-15T01:53:44.500Z,5.97
2022-11-15T01:56:15.888Z,5.97
2022-11-15T01:58:45.218Z,5.94
2022-11-15T02:01:16.041Z,5.94
2022-11-15T02:03:51.717Z,5.97
2022-11-15T02:06:20.992Z,5.77
2022-11-15T02:08:49.488Z,5.82
2022-11-15T02:11:17.861Z,5.89
2022-11-15T02:13:46.872Z,5.90
2022-11-15T02:16:29.500Z,5.89
2022-11-15T02:19:03.116Z,5.91
2022-11-15T02:21:39.455Z,5.88
2022-11-15T02:24:47.736Z,5.84
2022-11-15T02:27:45.817Z,5.81
2022-11-15T02:30:21.794Z,5.81
2022-11-15T02:32:57.132Z,5.80
2022-11-15T02:35:32.383Z,5.76
2022-11-15T02:38:11.686Z,5.77
2022-11-15T02:40:47.600Z,5.75
2022-11-15T02:43:40.059Z,5.76
2022-11-15T02:46:15.499Z,5.78
2022-11-15T02:48:45.399Z,5.75
2022-11-15T02:51:14.885Z,5.76
2022-11-15T02:53:43.225Z,5.71
2022-11-15T02:56:13.410Z,5.72
2022-11-15T02:59:03.054Z,5.71
2022-11-15T03:01:40.630Z,5.66
2022-11-15T03:04:25.943Z,5.69
2022-11-15T03:07:03.973Z,5.66
2022-11-15T03:09:37.176Z,5.65
2022-11-15T03:12:13.764Z,5.65
2022-11-15T03:14:48.810Z,5.69
2022-11-15T03:17:26.008Z,5.69
2022-11-15T03:19:57.900Z,5.70
2022-11-15T03:22:30.278Z,5.71
2022-11-15T03:25:04.276Z,5.70
2022-11-15T03:27:38.720Z,5.66
2022-11-15T03:34:01.471Z,5.60
2022-11-15T03:36:32.592Z,5.59
2022-11-15T03:39:04.606Z,5.59
2022-11-15T03:41:40.104Z,5.55
2022-11-15T03:44:16.118Z,5.51
2022-11-15T03:46:50.576Z,5.56
2022-11-15T03:49:26.811Z,5.53
2022-11-15T03:51:55.666Z,5.53
2022-11-15T03:54:23.694Z,5.52
2022-11-15T03:56:52.343Z,5.52
2022-11-15T03:59:20.440Z,5.55
2022-11-15T04:01:49.081Z,5.54
2022-11-15T04:04:17.470Z,5.57
2022-11-15T04:06:47.315Z,5.54
2022-11-15T04:09:15.375Z,5.52
2022-11-15T04:11:43.700Z,5.53
2022-11-15T04:14:11.751Z,5.58
2022-11-15T04:16:43.855Z,5.56
2022-11-15T04:19:29.560Z,5.55
2022-11-15T04:22:16.763Z,5.54
2022-11-15T04:24:44.985Z,5.53
2022-11-15T04:27:15.682Z,5.51
2022-11-15T04:29:43.993Z,5.47
2022-11-15T04:32:12.415Z,5.46
2022-11-15T04:34:40.485Z,5.43
2022-11-15T04:37:16.103Z,5.43
2022-11-15T04:39:45.209Z,5.46
2022-11-15T04:42:13.390Z,5.47
2022-11-15T04:44:44.443Z,5.46
2022-11-15T04:47:12.745Z,5.43
2022-11-15T04:49:40.761Z,5.43
2022-11-15T04:52:10.467Z,5.41
2022-11-15T04:54:38.884Z,5.38
2022-11-15T04:57:07.364Z,5.41
2022-11-15T04:59:35.425Z,5.46
2022-11-15T05:02:03.753Z,5.45
2022-11-15T05:04:30.802Z,5.46
2022-11-15T05:06:59.155Z,5.31
2022-11-15T05:09:28.715Z,5.43
2022-11-15T05:11:57.050Z,5.40
2022-11-15T05:14:28.179Z,5.40
2022-11-15T05:16:56.887Z,5.37
2022-11-15T05:19:25.444Z,5.34
2022-11-15T05:21:53.776Z,5.32
2022-11-15T05:24:21.833Z,5.35
2022-11-15T05:26:51.536Z,5.29
2022-11-15T05:29:19.388Z,5.29
2022-11-15T05:31:47.871Z,5.28
2022-11-15T05:34:15.880Z,5.29
2022-11-15T05:36:45.802Z,5.30
2022-11-15T05:39:13.881Z,5.32
2022-11-15T05:41:46.470Z,5.35
2022-11-15T05:44:19.893Z,5.26
2022-11-15T05:46:50.272Z,5.35
2022-11-15T05:49:22.147Z,5.37
2022-11-15T05:51:52.198Z,5.39
2022-11-15T05:54:24.510Z,5.33
2022-11-15T05:56:53.692Z,5.28
2022-11-15T05:59:23.381Z,5.30
2022-11-15T06:01:51.834Z,5.27
2022-11-15T06:04:19.928Z,5.26
2022-11-15T06:06:48.328Z,5.23
2022-11-15T06:09:16.381Z,5.22
2022-11-15T06:11:44.738Z,5.16
2022-11-15T06:14:12.762Z,5.19
2022-11-15T06:16:42.598Z,5.22
2022-11-15T06:19:10.653Z,5.21
2022-11-15T06:21:39.012Z,5.22
2022-11-15T06:24:08.200Z,5.22
2022-11-15T06:26:36.298Z,5.25
2022-11-15T06:29:05.380Z,5.24
2022-11-15T06:31:33.687Z,5.28
2022-11-15T06:34:03.083Z,5.29
2022-11-15T06:36:31.425Z,5.32
2022-11-15T06:38:59.499Z,5.32
2022-11-15T06:41:27.841Z,5.30
2022-11-15T06:43:55.877Z,5.32
2022-11-15T06:46:24.275Z,5.32
2022-11-15T06:48:53.023Z,5.38
2022-11-15T06:51:22.880Z,5.36
2022-11-15T06:53:51.014Z,5.39
2022-11-15T06:56:19.331Z,5.40
2022-11-15T06:58:47.911Z,5.41
2022-11-15T07:01:16.580Z,5.40
2022-11-15T07:03:44.968Z,5.39
2022-11-15T07:06:13.345Z,5.42
2022-11-15T07:08:43.515Z,5.41
2022-11-15T07:11:11.910Z,5.39
2022-11-15T07:13:39.953Z,5.40
2022-11-15T07:16:11.187Z,5.40
2022-11-15T07:18:41.583Z,5.42
2022-11-15T07:21:11.867Z,5.41
2022-11-15T07:23:40.664Z,5.44
2022-11-15T07:26:10.929Z,5.48
2022-11-15T07:28:39.124Z,5.52
2022-11-15T07:31:09.498Z,5.51
2022-11-15T07:33:37.675Z,5.52
2022-11-15T07:36:08.400Z,5.55
2022-11-15T07:38:42.404Z,5.39
2022-11-15T07:41:13.251Z,5.66
2022-11-15T07:43:41.289Z,5.76
2022-11-15T07:46:11.260Z,5.83
2022-11-15T07:48:44.358Z,5.87
2022-11-15T07:51:16.003Z,5.82
2022-11-15T07:53:44.636Z,5.79
2022-11-15T07:56:14.758Z,5.85
2022-11-15T07:58:42.822Z,5.98
2022-11-15T08:01:12.481Z,6.07
2022-11-15T08:03:41.167Z,6.01
2022-11-15T08:06:09.516Z,6.05
2022-11-15T08:08:37.577Z,6.03
2022-11-15T08:11:06.261Z,5.93
2022-11-15T08:13:35.963Z,5.96
2022-11-15T08:16:06.526Z,5.97
2022-11-15T08:18:37.147Z,5.95
2022-11-15T08:21:06.265Z,5.91
2022-11-15T08:23:34.696Z,5.83
2022-11-15T08:26:04.480Z,5.79
2022-11-15T08:28:32.775Z,5.83
2022-11-15T08:31:02.826Z,5.70
2022-11-15T08:33:31.321Z,5.77
2022-11-15T08:36:00.809Z,5.93
2022-11-15T08:38:30.046Z,5.73
2022-11-15T08:41:03.613Z,5.88
2022-11-15T08:43:32.078Z,6.03
2022-11-15T08:46:02.215Z,6.08
2022-11-15T08:48:31.797Z,6.05
2022-11-15T08:51:00.499Z,5.96
2022-11-15T08:53:28.558Z,5.87
2022-11-15T08:55:59.690Z,5.84
2022-11-15T08:58:27.727Z,5.83
2022-11-15T09:00:56.308Z,5.77
2022-11-15T09:03:25.736Z,5.74
2022-11-15T09:05:57.577Z,5.87
2022-11-15T09:08:46.426Z,5.79
2022-11-15T09:11:14.079Z,5.79
2022-11-15T09:13:42.247Z,5.77
2022-11-15T09:16:12.834Z,5.81
2022-11-15T09:18:42.582Z,5.79
2022-11-15T09:21:11.912Z,5.79
2022-11-15T09:23:40.387Z,5.80
2022-11-15T09:26:08.714Z,5.84
2022-11-15T09:28:37.789Z,5.79
2022-11-15T09:31:08.105Z,5.81
2022-11-15T09:33:36.290Z,5.76
2022-11-15T09:36:08.972Z,5.70
2022-11-15T09:38:37.442Z,5.90
2022-11-15T09:41:45.013Z,5.85
2022-11-15T09:44:44.798Z,5.86
2022-11-15T09:47:38.262Z,5.97
2022-11-15T09:50:12.328Z,6.01
2022-11-15T09:52:46.493Z,5.99
2022-11-15T09:55:22.369Z,6.00
2022-11-15T09:57:56.622Z,6.13
2022-11-15T10:00:52.179Z,6.07
2022-11-15T10:03:27.453Z,5.99
2022-11-15T10:06:00.364Z,6.02
2022-11-15T10:08:45.372Z,6.05
2022-11-15T10:14:13.562Z,5.92
2022-11-15T10:17:19.147Z,6.05
2022-11-15T10:20:01.083Z,6.16
2022-11-15T10:22:40.728Z,6.21
2022-11-15T10:25:19.430Z,6.09
2022-11-15T10:27:54.441Z,6.08
2022-11-15T10:30:23.296Z,5.98
2022-11-15T10:32:51.671Z,6.15
2022-11-15T10:35:28.155Z,6.15
2022-11-15T10:38:07.163Z,6.06
2022-11-15T10:40:38.022Z,5.48
2022-11-15T10:43:14.927Z,5.80
2022-11-15T10:45:44.014Z,5.78
2022-11-15T10:48:26.141Z,5.90
2022-11-15T10:50:56.755Z,6.05
2022-11-15T10:53:35.549Z,5.95
2022-11-15T10:56:09.901Z,6.12
2022-11-15T10:58:41.006Z,6.15
2022-11-15T11:01:18.340Z,6.09
2022-11-15T11:03:48.096Z,6.19
2022-11-15T11:06:18.615Z,6.14
2022-11-15T11:09:05.461Z,6.11
2022-11-15T11:11:49.327Z,6.03
2022-11-15T11:14:21.574Z,5.77
2022-11-15T11:16:53.871Z,5.85
2022-11-15T11:19:57.065Z,6.10
2022-11-15T11:22:32.885Z,6.22
2022-11-15T11:25:19.157Z,6.29
2022-11-15T11:28:01.458Z,6.28
2022-11-15T11:30:49.007Z,6.25
2022-11-15T11:33:21.721Z,6.32
2022-11-15T11:36:01.609Z,6.31
2022-11-15T11:38:54.897Z,6.38
2022-11-15T11:41:40.876Z,6.31
2022-11-15T11:44:20.185Z,6.31
2022-11-15T11:46:54.269Z,6.28
2022-11-15T11:49:30.403Z,6.25
2022-11-15T11:52:04.621Z,6.27
2022-11-15T11:54:44.718Z,6.28
2022-11-15T11:57:19.519Z,6.28
2022-11-15T11:59:55.330Z,6.12
2022-11-15T12:02:30.565Z,6.28
2022-11-15T12:05:09.995Z,6.26
2022-11-15T12:07:41.112Z,6.34
2022-11-15T12:10:21.246Z,6.33
2022-11-15T12:12:56.927Z,6.39
2022-11-15T12:15:30.289Z,6.41
2022-11-15T12:17:59.547Z,6.38
2022-11-15T12:20:30.072Z,6.43
2022-11-15T12:23:03.605Z,6.44
2022-11-15T12:25:36.571Z,6.45
2022-11-15T12:28:17.079Z,6.43
2022-11-15T12:30:51.699Z,6.45
2022-11-15T12:33:38.622Z,6.19
2022-11-15T12:36:11.183Z,6.42
2022-11-15T12:38:57.748Z,6.31
2022-11-15T12:41:28.037Z,6.33
2022-11-15T12:43:56.690Z,6.33
2022-11-15T12:47:04.445Z,6.34
2022-11-15T12:49:47.152Z,6.34
2022-11-15T12:52:16.327Z,6.32
2022-11-15T12:54:59.322Z,6.28
2022-11-15T12:57:44.646Z,6.35
2022-11-15T13:00:45.830Z,6.37
2022-11-15T13:03:27.529Z,6.32
2022-11-15T13:06:14.180Z,6.32
2022-11-15T13:08:51.969Z,6.19
2022-11-15T13:11:49.895Z,6.23
2022-11-15T13:14:55.206Z,6.26
2022-11-15T13:17:38.690Z,6.26
2022-11-15T13:20:33.169Z,6.22
2022-11-15T13:23:11.451Z,6.25
2022-11-15T13:26:05.119Z,6.26
2022-11-15T13:28:35.998Z,6.19
2022-11-15T13:31:21.394Z,6.15
2022-11-15T13:33:49.578Z,6.16
2022-11-15T13:36:23.115Z,6.16
2022-11-15T13:39:00.049Z,6.06
2022-11-15T13:41:30.686Z,6.04
2022-11-15T13:43:59.996Z,5.98
2022-11-15T13:46:30.021Z,6.02
2022-11-15T13:49:00.844Z,6.09
2022-11-15T13:51:39.213Z,5.90
2022-11-15T13:54:16.789Z,5.97
2022-11-15T13:56:49.266Z,6.00
2022-11-15T13:59:25.389Z,5.97
2022-11-15T14:01:54.452Z,6.02
2022-11-15T14:04:26.237Z,5.95
2022-11-15T14:06:59.395Z,5.93
2022-11-15T14:09:38.616Z,5.91
2022-11-15T14:12:27.106Z,5.78
2022-11-15T14:14:55.991Z,5.79
2022-11-15T14:17:39.714Z,5.62
2022-11-15T14:20:32.897Z,5.79
2022-11-15T14:23:04.545Z,5.77
2022-11-15T14:25:33.322Z,5.74
2022-11-15T14:28:18.155Z,5.75
2022-11-15T14:30:51.125Z,5.74
2022-11-15T14:33:25.039Z,5.75
2022-11-15T14:35:53.637Z,5.61
2022-11-15T14:38:23.693Z,5.71
2022-11-15T14:40:52.662Z,5.69
2022-11-15T14:43:21.492Z,5.71
2022-11-15T14:45:49.563Z,5.69
2022-11-15T14:48:17.892Z,5.65
2022-11-15T14:50:46.114Z,5.65
2022-11-15T14:53:16.849Z,5.65
2022-11-15T14:55:46.476Z,5.60
2022-11-15T14:58:14.805Z,5.58
2022-11-15T15:00:43.741Z,5.58
2022-11-15T15:03:12.195Z,5.58
2022-11-15T15:05:42.506Z,5.61
2022-11-15T15:08:12.339Z,5.64
2022-11-15T15:10:42.950Z,5.70
2022-11-15T15:13:19.203Z,5.64
2022-11-15T15:15:48.308Z,5.64
2022-11-15T15:18:16.919Z,5.58
2022-11-15T15:20:47.630Z,5.60
2022-11-15T15:23:19.346Z,5.66
2022-11-15T15:25:50.964Z,5.63
2022-11-15T15:28:22.974Z,5.66
2022-11-15T15:30:51.641Z,5.63
2022-11-15T15:33:19.984Z,5.66
2022-11-15T15:35:48.264Z,5.63
2022-11-15T15:38:16.890Z,5.66
2022-11-15T15:40:44.939Z,5.67
2022-11-15T15:43:13.551Z,5.60
2022-11-15T15:45:44.379Z,5.35
2022-11-15T15:48:14.735Z,5.54
2022-11-15T15:50:44.158Z,5.55
2022-11-15T15:53:13.842Z,5.55
2022-11-15T15:55:42.266Z,5.58
2022-11-15T15:58:10.644Z,5.58
2022-11-15T16:00:38.846Z,5.61
2022-11-15T16:03:08.555Z,5.53
2022-11-15T16:05:36.394Z,5.53
2022-11-15T16:08:05.273Z,5.52
2022-11-15T16:10:35.115Z,5.50
2022-11-15T16:13:03.526Z,5.41
2022-11-15T16:15:33.149Z,5.44
2022-11-15T16:18:03.174Z,5.39
2022-11-15T16:20:36.972Z,5.37
2022-11-15T16:23:09.588Z,5.43
2022-11-15T16:25:46.328Z,5.43
2022-11-15T16:28:19.951Z,5.39
2022-11-15T16:30:51.101Z,5.37
2022-11-15T16:33:24.026Z,5.35
2022-11-15T16:35:53.584Z,5.32
2022-11-15T16:38:22.038Z,5.34
2022-11-15T16:40:50.101Z,5.25
2022-11-15T16:43:18.570Z,5.36
2022-11-15T16:45:46.952Z,5.41
2022-11-15T16:48:23.532Z,5.44
2022-11-15T16:50:55.930Z,5.47
2022-11-15T16:53:24.962Z,5.48
2022-11-15T16:55:53.413Z,5.56
2022-11-15T16:58:21.827Z,5.53
2022-11-15T17:00:53.190Z,5.50
2022-11-15T17:03:21.802Z,5.51
2022-11-15T17:05:50.165Z,5.56
2022-11-15T17:08:20.996Z,5.54
2022-11-15T17:10:49.079Z,5.56
2022-11-15T17:13:17.432Z,5.54
2022-11-15T17:15:45.594Z,5.57
2022-11-15T17:18:15.568Z,5.56
2022-11-15T17:20:44.412Z,5.55
2022-11-15T17:23:15.549Z,5.56
2022-11-15T17:25:45.772Z,5.55
2022-11-15T17:28:14.239Z,5.55
2022-11-15T17:30:44.210Z,5.50
2022-11-15T17:33:12.847Z,5.55
2022-11-15T17:35:40.861Z,5.57
2022-11-15T17:38:09.238Z,5.61
2022-11-15T17:40:37.398Z,5.68
2022-11-15T17:43:07.991Z,5.64
2022-11-15T17:45:41.873Z,5.65
2022-11-15T17:48:10.213Z,5.62
2022-11-15T17:50:38.234Z,5.60
2022-11-15T17:53:06.561Z,5.57
2022-11-15T17:55:34.798Z,5.52
2022-11-15T17:58:03.209Z,5.54
2022-11-15T18:00:33.300Z,5.56
2022-11-15T18:03:01.853Z,5.54
2022-11-15T18:05:29.934Z,5.52
2022-11-15T18:07:58.264Z,5.48
2022-11-15T18:10:26.321Z,5.54
2022-11-15T18:12:54.666Z,5.65
2022-11-15T18:15:22.748Z,5.63
2022-11-15T18:17:53.394Z,5.57
2022-11-15T18:20:28.758Z,5.57
2022-11-15T18:22:57.577Z,5.57
2022-11-15T18:25:25.875Z,5.62
2022-11-15T18:27:55.432Z,5.56
2022-11-15T18:30:23.835Z,5.47
2022-11-15T18:32:54.390Z,5.46
2022-11-15T18:35:22.715Z,5.46
2022-11-15T18:37:51.021Z,5.51
2022-11-15T18:40:19.446Z,5.51
2022-11-15T18:42:47.771Z,5.46
2022-11-15T18:45:21.490Z,5.52
2022-11-15T18:47:53.633Z,5.56
2022-11-15T18:50:21.465Z,5.58
2022-11-15T18:52:50.066Z,5.65
2022-11-15T18:55:18.117Z,5.61
2022-11-15T18:57:47.904Z,5.65
2022-11-15T19:00:16.378Z,5.65
2022-11-15T19:02:44.716Z,5.59
2022-11-15T19:05:19.676Z,5.54
2022-11-15T19:07:49.559Z,5.60
2022-11-15T19:10:20.037Z,5.57
2022-11-15T19:12:49.410Z,5.58
2022-11-15T19:15:17.460Z,5.54
2022-11-15T19:17:45.784Z,5.60
2022-11-15T19:20:15.288Z,5.57
2022-11-15T19:22:43.635Z,5.63
2022-11-15T19:25:11.670Z,5.63
2022-11-15T19:27:40.551Z,5.60
2022-11-15T19:30:10.158Z,5.58
2022-11-15T19:32:38.473Z,5.56
2022-11-15T19:35:08.055Z,5.51
2022-11-15T19:37:37.768Z,5.52
2022-11-15T19:40:06.080Z,5.56
2022-11-15T19:42:34.427Z,5.07
2022-11-15T19:45:02.459Z,5.60
2022-11-15T19:47:30.829Z,5.58
2022-11-15T19:49:59.048Z,5.57
2022-11-15T19:52:27.430Z,5.60
2022-11-15T19:54:57.020Z,5.65
2022-11-15T19:57:25.331Z,5.67
2022-11-15T19:59:53.389Z,5.52
2022-11-15T20:02:21.699Z,5.51
2022-11-15T20:04:49.791Z,5.53
2022-11-15T20:07:18.240Z,5.54
2022-11-15T20:09:46.311Z,5.56
2022-11-15T20:12:17.397Z,5.59
2022-11-15T20:14:45.982Z,5.56
2022-11-15T20:17:14.667Z,5.46
2022-11-15T20:19:42.719Z,5.58
2022-11-15T20:22:11.021Z,5.58
2022-11-15T20:24:39.066Z,5.58
2022-11-15T20:27:08.551Z,5.58
2022-11-15T20:29:42.313Z,5.59
2022-11-15T20:32:12.552Z,5.64
2022-11-15T20:34:40.680Z,5.67
2022-11-15T20:37:09.017Z,5.70
2022-11-15T20:39:37.092Z,5.68
2022-11-15T20:42:05.557Z,5.61
2022-11-15T20:44:33.651Z,5.61
2022-11-15T20:47:03.377Z,5.57
2022-11-15T20:49:31.198Z,5.55
2022-11-15T20:51:59.552Z,5.61
2022-11-15T20:54:27.582Z,5.59
2022-11-15T20:56:56.199Z,5.60
2022-11-15T20:59:25.562Z,5.66
2022-11-15T21:01:54.080Z,5.65
2022-11-15T21:04:23.873Z,5.61
2022-11-15T21:06:52.253Z,5.60
2022-11-15T21:09:38.422Z,5.47
2022-11-15T21:12:13.044Z,5.55
2022-11-15T21:14:43.463Z,5.61
2022-11-15T21:17:12.114Z,5.53
2022-11-15T21:19:41.554Z,5.45
2022-11-15T21:22:11.077Z,5.55
2022-11-15T21:24:39.147Z,5.60
2022-11-15T21:27:08.780Z,5.61
2022-11-15T21:29:40.069Z,5.62
2022-11-15T21:32:11.798Z,5.61
2022-11-15T21:34:41.267Z,5.57
2022-11-15T21:37:11.873Z,5.57
2022-11-15T21:39:40.212Z,5.56
2022-11-15T21:42:08.538Z,5.54
2022-11-15T21:44:36.595Z,5.59
2022-11-15T21:47:04.962Z,5.60
2022-11-15T21:49:33.326Z,5.61
2022-11-15T21:52:03.049Z,5.63
2022-11-15T21:54:32.212Z,5.66
2022-11-15T21:57:00.676Z,5.70
2022-11-15T21:59:28.820Z,5.73
2022-11-15T22:02:14.415Z,5.79
2022-11-15T22:07:33.160Z,5.71
2022-11-15T22:10:02.388Z,5.55
2022-11-15T22:12:30.605Z,5.58
2022-11-15T22:14:59.234Z,5.65
2022-11-15T22:17:47.903Z,5.66
2022-11-15T22:20:43.063Z,5.68
2022-11-15T22:23:07.210Z,5.75
2022-11-15T22:25:35.465Z,5.72
2022-11-15T22:28:04.386Z,5.68
2022-11-15T22:30:32.608Z,5.69
2022-11-15T22:33:01.161Z,5.71
2022-11-15T22:35:29.590Z,5.71
2022-11-15T22:37:58.115Z,5.71
2022-11-15T22:40:27.746Z,5.65
2022-11-15T22:42:56.231Z,5.64
2022-11-15T22:45:24.467Z,5.61
2022-11-15T22:47:52.968Z,5.65
2022-11-15T22:50:21.255Z,5.65
2022-11-15T22:52:49.890Z,5.67
2022-11-15T22:55:19.260Z,5.69
2022-11-15T22:57:48.815Z,5.71
2022-11-15T23:00:18.705Z,5.70
2022-11-15T23:02:49.597Z,5.68
2022-11-15T23:05:21.392Z,5.69
2022-11-15T23:07:52.150Z,5.73
2022-11-15T23:10:37.983Z,5.82
2022-11-15T23:13:18.101Z,5.89
2022-11-15T23:16:06.025Z,5.87
2022-11-15T23:18:35.881Z,5.83
2022-11-15T23:21:11.121Z,5.84
2022-11-15T23:23:39.179Z,5.83
2022-11-15T23:26:07.705Z,5.84
2022-11-15T23:28:38.173Z,5.87
2022-11-15T23:31:27.232Z,5.81
2022-11-15T23:34:01.745Z,5.78
2022-11-15T23:36:30.719Z,5.84
2022-11-15T23:38:59.381Z,5.87
2022-11-15T23:41:27.599Z,5.87
2022-11-15T23:43:57.580Z,5.91
2022-11-15T23:46:25.865Z,5.93
2022-11-15T23:48:54.441Z,5.91
2022-11-15T23:51:22.686Z,5.91
2022-11-15T23:53:51.285Z,5.93
2022-11-15T23:56:20.976Z,5.89
2022-11-15T23:58:49.787Z,5.87
